sensor_id;sensor_type;location;lat;lon;timestamp;P1;durP1;ratioP1;P2;durP2;ratioP2
20318;SDS011;10317;47.254;11.314;2022-09-09T00:00:31;2.72;;;1.52;;
20318;SDS011;10317;47.254;11.314;2022-09-09T00:03:12;1.95;;;1.55;;
20318;SDS011;10317;47.254;11.314;2022-09-09T00:11:18;3.05;;;1.25;;
20318;SDS011;10317;47.254;11.314;2022-09-09T00:13:57;3.50;;;1.38;;
20318;SDS011;10317;47.254;11.314;2022-09-09T00:16:28;1.13;;;1.13;;
20318;SDS011;10317;47.254;11.314;2022-09-09T00:19:14;1.65;;;1.55;;
20318;SDS011;10317;47.254;11.314;2022-09-09T00:21:53;3.47;;;1.00;;
20318;SDS011;10317;47.254;11.314;2022-09-09T00:24:43;1.00;;;1.00;;
20318;SDS011;10317;47.254;11.314;2022-09-09T00:30:14;3.28;;;1.15;;
20318;SDS011;10317;47.254;11.314;2022-09-09T00:32:49;1.50;;;1.35;;
20318;SDS011;10317;47.254;11.314;2022-09-09T00:35:24;2.08;;;1.23;;
20318;SDS011;10317;47.254;11.314;2022-09-09T00:38:05;4.97;;;1.30;;
20318;SDS011;10317;47.254;11.314;2022-09-09T00:40:52;1.27;;;1.08;;
20318;SDS011;10317;47.254;11.314;2022-09-09T00:43:46;2.50;;;1.40;;
20318;SDS011;10317;47.254;11.314;2022-09-09T00:49:32;2.83;;;1.20;;
20318;SDS011;10317;47.254;11.314;2022-09-09T00:54:52;1.38;;;1.02;;
20318;SDS011;10317;47.254;11.314;2022-09-09T00:57:38;1.20;;;1.00;;
20318;SDS011;10317;47.254;11.314;2022-09-09T01:11:19;4.55;;;1.50;;
20318;SDS011;10317;47.254;11.314;2022-09-09T01:13:45;1.30;;;1.30;;
20318;SDS011;10317;47.254;11.314;2022-09-09T01:16:24;2.65;;;1.50;;
20318;SDS011;10317;47.254;11.314;2022-09-09T01:18:52;1.13;;;1.13;;
20318;SDS011;10317;47.254;11.314;2022-09-09T01:21:22;1.80;;;1.30;;
20318;SDS011;10317;47.254;11.314;2022-09-09T01:26:44;1.08;;;1.08;;
20318;SDS011;10317;47.254;11.314;2022-09-09T01:29:17;1.52;;;1.20;;
20318;SDS011;10317;47.254;11.314;2022-09-09T01:34:22;2.55;;;1.63;;
20318;SDS011;10317;47.254;11.314;2022-09-09T01:37:07;3.80;;;1.10;;
20318;SDS011;10317;47.254;11.314;2022-09-09T01:39:37;1.38;;;1.20;;
20318;SDS011;10317;47.254;11.314;2022-09-09T01:42:06;1.50;;;1.40;;
20318;SDS011;10317;47.254;11.314;2022-09-09T01:44:34;2.17;;;1.40;;
20318;SDS011;10317;47.254;11.314;2022-09-09T01:47:01;1.38;;;1.35;;
20318;SDS011;10317;47.254;11.314;2022-09-09T01:49:27;2.00;;;1.42;;
20318;SDS011;10317;47.254;11.314;2022-09-09T01:51:53;5.13;;;1.38;;
20318;SDS011;10317;47.254;11.314;2022-09-09T01:54:20;3.90;;;1.67;;
20318;SDS011;10317;47.254;11.314;2022-09-09T01:59:25;2.05;;;1.20;;
20318;SDS011;10317;47.254;11.314;2022-09-09T02:04:38;1.55;;;1.50;;
20318;SDS011;10317;47.254;11.314;2022-09-09T02:07:29;1.73;;;1.60;;
20318;SDS011;10317;47.254;11.314;2022-09-09T02:10:15;1.42;;;1.33;;
20318;SDS011;10317;47.254;11.314;2022-09-09T02:12:50;1.65;;;1.50;;
20318;SDS011;10317;47.254;11.314;2022-09-09T02:15:38;1.27;;;1.27;;
20318;SDS011;10317;47.254;11.314;2022-09-09T02:18:38;2.78;;;1.45;;
20318;SDS011;10317;47.254;11.314;2022-09-09T02:21:15;1.50;;;1.30;;
20318;SDS011;10317;47.254;11.314;2022-09-09T02:23:43;1.30;;;1.30;;
20318;SDS011;10317;47.254;11.314;2022-09-09T02:26:12;2.78;;;1.80;;
20318;SDS011;10317;47.254;11.314;2022-09-09T02:28:44;1.25;;;1.25;;
20318;SDS011;10317;47.254;11.314;2022-09-09T02:31:11;2.47;;;1.83;;
20318;SDS011;10317;47.254;11.314;2022-09-09T02:33:43;2.95;;;1.67;;
20318;SDS011;10317;47.254;11.314;2022-09-09T02:36:11;2.38;;;1.40;;
20318;SDS011;10317;47.254;11.314;2022-09-09T02:38:42;3.22;;;1.77;;
20318;SDS011;10317;47.254;11.314;2022-09-09T02:41:15;1.65;;;1.33;;
20318;SDS011;10317;47.254;11.314;2022-09-09T02:43:46;1.42;;;1.40;;
20318;SDS011;10317;47.254;11.314;2022-09-09T02:51:24;4.47;;;1.50;;
20318;SDS011;10317;47.254;11.314;2022-09-09T02:56:29;4.30;;;2.20;;
20318;SDS011;10317;47.254;11.314;2022-09-09T02:58:58;3.97;;;1.60;;
20318;SDS011;10317;47.254;11.314;2022-09-09T03:01:24;1.73;;;1.48;;
20318;SDS011;10317;47.254;11.314;2022-09-09T03:03:50;1.45;;;1.45;;
20318;SDS011;10317;47.254;11.314;2022-09-09T03:06:16;3.88;;;1.92;;
20318;SDS011;10317;47.254;11.314;2022-09-09T03:08:41;1.60;;;1.50;;
20318;SDS011;10317;47.254;11.314;2022-09-09T03:11:12;2.50;;;1.60;;
20318;SDS011;10317;47.254;11.314;2022-09-09T03:13:39;1.40;;;1.40;;
20318;SDS011;10317;47.254;11.314;2022-09-09T03:16:04;1.50;;;1.50;;
20318;SDS011;10317;47.254;11.314;2022-09-09T03:18:30;2.05;;;1.80;;
20318;SDS011;10317;47.254;11.314;2022-09-09T03:20:57;2.25;;;1.88;;
20318;SDS011;10317;47.254;11.314;2022-09-09T03:23:24;5.85;;;2.47;;
20318;SDS011;10317;47.254;11.314;2022-09-09T03:25:50;2.35;;;2.20;;
20318;SDS011;10317;47.254;11.314;2022-09-09T03:28:16;2.38;;;1.63;;
20318;SDS011;10317;47.254;11.314;2022-09-09T03:30:42;2.25;;;2.15;;
20318;SDS011;10317;47.254;11.314;2022-09-09T03:33:08;1.70;;;1.58;;
20318;SDS011;10317;47.254;11.314;2022-09-09T03:35:34;2.85;;;2.00;;
20318;SDS011;10317;47.254;11.314;2022-09-09T03:37:59;2.25;;;1.48;;
20318;SDS011;10317;47.254;11.314;2022-09-09T03:40:25;3.35;;;1.88;;
20318;SDS011;10317;47.254;11.314;2022-09-09T03:42:51;1.98;;;1.50;;
20318;SDS011;10317;47.254;11.314;2022-09-09T03:45:17;2.63;;;1.52;;
20318;SDS011;10317;47.254;11.314;2022-09-09T03:47:43;2.22;;;1.85;;
20318;SDS011;10317;47.254;11.314;2022-09-09T03:50:09;1.83;;;1.73;;
20318;SDS011;10317;47.254;11.314;2022-09-09T03:52:36;2.10;;;1.90;;
20318;SDS011;10317;47.254;11.314;2022-09-09T03:55:03;2.85;;;2.00;;
20318;SDS011;10317;47.254;11.314;2022-09-09T03:57:30;1.70;;;1.60;;
20318;SDS011;10317;47.254;11.314;2022-09-09T03:59:57;2.92;;;2.60;;
20318;SDS011;10317;47.254;11.314;2022-09-09T04:02:24;2.03;;;2.00;;
20318;SDS011;10317;47.254;11.314;2022-09-09T04:04:49;2.80;;;1.90;;
20318;SDS011;10317;47.254;11.314;2022-09-09T04:07:15;2.88;;;2.08;;
20318;SDS011;10317;47.254;11.314;2022-09-09T04:09:40;1.80;;;1.75;;
20318;SDS011;10317;47.254;11.314;2022-09-09T04:12:06;2.25;;;1.90;;
20318;SDS011;10317;47.254;11.314;2022-09-09T04:14:32;2.20;;;2.00;;
20318;SDS011;10317;47.254;11.314;2022-09-09T04:16:58;2.38;;;2.20;;
20318;SDS011;10317;47.254;11.314;2022-09-09T04:19:24;1.90;;;1.77;;
20318;SDS011;10317;47.254;11.314;2022-09-09T04:21:50;2.47;;;2.10;;
20318;SDS011;10317;47.254;11.314;2022-09-09T04:24:16;3.17;;;2.15;;
20318;SDS011;10317;47.254;11.314;2022-09-09T04:26:42;3.83;;;2.53;;
20318;SDS011;10317;47.254;11.314;2022-09-09T04:29:08;3.15;;;2.38;;
20318;SDS011;10317;47.254;11.314;2022-09-09T04:31:34;4.13;;;2.40;;
20318;SDS011;10317;47.254;11.314;2022-09-09T04:34:00;4.30;;;2.22;;
20318;SDS011;10317;47.254;11.314;2022-09-09T04:36:30;3.55;;;2.63;;
20318;SDS011;10317;47.254;11.314;2022-09-09T04:38:59;3.58;;;2.13;;
20318;SDS011;10317;47.254;11.314;2022-09-09T04:41:25;3.38;;;2.90;;
20318;SDS011;10317;47.254;11.314;2022-09-09T04:43:51;4.65;;;3.05;;
20318;SDS011;10317;47.254;11.314;2022-09-09T04:46:18;4.05;;;2.25;;
20318;SDS011;10317;47.254;11.314;2022-09-09T04:48:45;2.53;;;2.35;;
20318;SDS011;10317;47.254;11.314;2022-09-09T04:51:11;3.28;;;2.97;;
20318;SDS011;10317;47.254;11.314;2022-09-09T04:53:39;3.22;;;2.90;;
20318;SDS011;10317;47.254;11.314;2022-09-09T04:56:06;3.75;;;2.10;;
20318;SDS011;10317;47.254;11.314;2022-09-09T04:58:35;2.85;;;2.33;;
20318;SDS011;10317;47.254;11.314;2022-09-09T05:01:07;4.40;;;1.55;;
20318;SDS011;10317;47.254;11.314;2022-09-09T05:03:34;2.50;;;2.33;;
20318;SDS011;10317;47.254;11.314;2022-09-09T05:06:04;3.95;;;2.28;;
20318;SDS011;10317;47.254;11.314;2022-09-09T05:08:33;2.40;;;1.90;;
20318;SDS011;10317;47.254;11.314;2022-09-09T05:10:59;2.65;;;2.45;;
20318;SDS011;10317;47.254;11.314;2022-09-09T05:13:26;2.97;;;2.63;;
20318;SDS011;10317;47.254;11.314;2022-09-09T05:15:52;5.50;;;2.85;;
20318;SDS011;10317;47.254;11.314;2022-09-09T05:18:18;2.58;;;2.38;;
20318;SDS011;10317;47.254;11.314;2022-09-09T05:20:44;2.92;;;2.35;;
20318;SDS011;10317;47.254;11.314;2022-09-09T05:23:10;2.42;;;2.25;;
20318;SDS011;10317;47.254;11.314;2022-09-09T05:25:39;2.13;;;1.92;;
20318;SDS011;10317;47.254;11.314;2022-09-09T05:28:06;3.88;;;2.45;;
20318;SDS011;10317;47.254;11.314;2022-09-09T05:30:33;5.00;;;2.15;;
20318;SDS011;10317;47.254;11.314;2022-09-09T05:32:59;2.20;;;2.10;;
20318;SDS011;10317;47.254;11.314;2022-09-09T05:35:24;2.47;;;2.17;;
20318;SDS011;10317;47.254;11.314;2022-09-09T05:37:50;2.50;;;2.28;;
20318;SDS011;10317;47.254;11.314;2022-09-09T05:40:16;2.30;;;2.03;;
20318;SDS011;10317;47.254;11.314;2022-09-09T05:42:42;2.22;;;2.03;;
20318;SDS011;10317;47.254;11.314;2022-09-09T05:45:08;3.30;;;2.47;;
20318;SDS011;10317;47.254;11.314;2022-09-09T05:47:34;3.60;;;2.72;;
20318;SDS011;10317;47.254;11.314;2022-09-09T05:50:02;4.70;;;2.85;;
20318;SDS011;10317;47.254;11.314;2022-09-09T05:52:28;2.97;;;2.67;;
20318;SDS011;10317;47.254;11.314;2022-09-09T05:54:54;2.67;;;2.47;;
20318;SDS011;10317;47.254;11.314;2022-09-09T05:57:21;3.08;;;2.80;;
20318;SDS011;10317;47.254;11.314;2022-09-09T05:59:47;2.58;;;2.38;;
20318;SDS011;10317;47.254;11.314;2022-09-09T06:02:14;4.50;;;3.00;;
20318;SDS011;10317;47.254;11.314;2022-09-09T06:04:41;2.40;;;2.30;;
20318;SDS011;10317;47.254;11.314;2022-09-09T06:07:07;3.42;;;2.60;;
20318;SDS011;10317;47.254;11.314;2022-09-09T06:09:33;2.95;;;2.63;;
20318;SDS011;10317;47.254;11.314;2022-09-09T06:11:58;4.13;;;2.28;;
20318;SDS011;10317;47.254;11.314;2022-09-09T06:14:24;2.13;;;2.03;;
20318;SDS011;10317;47.254;11.314;2022-09-09T06:16:53;2.33;;;2.22;;
20318;SDS011;10317;47.254;11.314;2022-09-09T06:19:18;4.45;;;2.47;;
20318;SDS011;10317;47.254;11.314;2022-09-09T06:21:45;3.83;;;2.47;;
20318;SDS011;10317;47.254;11.314;2022-09-09T06:24:12;2.70;;;2.50;;
20318;SDS011;10317;47.254;11.314;2022-09-09T06:26:42;3.30;;;3.00;;
20318;SDS011;10317;47.254;11.314;2022-09-09T06:29:07;2.78;;;2.58;;
20318;SDS011;10317;47.254;11.314;2022-09-09T06:31:34;2.30;;;2.20;;
20318;SDS011;10317;47.254;11.314;2022-09-09T06:34:02;3.03;;;2.83;;
20318;SDS011;10317;47.254;11.314;2022-09-09T06:36:33;3.53;;;3.30;;
20318;SDS011;10317;47.254;11.314;2022-09-09T06:39:02;3.75;;;3.42;;
20318;SDS011;10317;47.254;11.314;2022-09-09T06:41:28;3.20;;;3.00;;
20318;SDS011;10317;47.254;11.314;2022-09-09T06:43:55;2.83;;;2.63;;
20318;SDS011;10317;47.254;11.314;2022-09-09T06:46:25;3.08;;;2.88;;
20318;SDS011;10317;47.254;11.314;2022-09-09T06:48:57;3.72;;;3.50;;
20318;SDS011;10317;47.254;11.314;2022-09-09T06:51:25;3.15;;;2.88;;
20318;SDS011;10317;47.254;11.314;2022-09-09T06:53:53;5.72;;;4.00;;
20318;SDS011;10317;47.254;11.314;2022-09-09T06:58:48;6.22;;;4.50;;
20318;SDS011;10317;47.254;11.314;2022-09-09T07:01:17;3.83;;;3.42;;
20318;SDS011;10317;47.254;11.314;2022-09-09T07:03:51;3.90;;;3.60;;
20318;SDS011;10317;47.254;11.314;2022-09-09T07:06:23;4.80;;;3.78;;
20318;SDS011;10317;47.254;11.314;2022-09-09T07:08:54;4.82;;;3.20;;
20318;SDS011;10317;47.254;11.314;2022-09-09T07:11:29;4.68;;;3.88;;
20318;SDS011;10317;47.254;11.314;2022-09-09T07:14:00;7.43;;;4.68;;
20318;SDS011;10317;47.254;11.314;2022-09-09T07:16:26;7.13;;;4.72;;
20318;SDS011;10317;47.254;11.314;2022-09-09T07:18:56;7.10;;;4.28;;
20318;SDS011;10317;47.254;11.314;2022-09-09T07:21:25;4.18;;;3.70;;
20318;SDS011;10317;47.254;11.314;2022-09-09T07:23:52;5.20;;;3.80;;
20318;SDS011;10317;47.254;11.314;2022-09-09T07:26:19;3.83;;;3.17;;
20318;SDS011;10317;47.254;11.314;2022-09-09T07:28:46;3.65;;;3.35;;
20318;SDS011;10317;47.254;11.314;2022-09-09T07:31:13;4.95;;;3.85;;
20318;SDS011;10317;47.254;11.314;2022-09-09T07:33:41;3.03;;;2.83;;
20318;SDS011;10317;47.254;11.314;2022-09-09T07:36:09;3.15;;;2.92;;
20318;SDS011;10317;47.254;11.314;2022-09-09T07:38:46;4.18;;;3.63;;
20318;SDS011;10317;47.254;11.314;2022-09-09T07:41:21;3.60;;;3.30;;
20318;SDS011;10317;47.254;11.314;2022-09-09T07:43:49;3.00;;;2.80;;
20318;SDS011;10317;47.254;11.314;2022-09-09T07:46:17;4.68;;;3.22;;
20318;SDS011;10317;47.254;11.314;2022-09-09T07:48:47;3.83;;;3.50;;
20318;SDS011;10317;47.254;11.314;2022-09-09T07:51:18;3.60;;;3.30;;
20318;SDS011;10317;47.254;11.314;2022-09-09T07:53:47;3.38;;;2.83;;
20318;SDS011;10317;47.254;11.314;2022-09-09T07:56:17;3.40;;;2.90;;
20318;SDS011;10317;47.254;11.314;2022-09-09T07:58:46;2.92;;;2.72;;
20318;SDS011;10317;47.254;11.314;2022-09-09T08:01:16;3.97;;;3.17;;
20318;SDS011;10317;47.254;11.314;2022-09-09T08:03:45;3.22;;;2.92;;
20318;SDS011;10317;47.254;11.314;2022-09-09T08:06:12;6.25;;;3.90;;
20318;SDS011;10317;47.254;11.314;2022-09-09T08:08:39;4.18;;;3.63;;
20318;SDS011;10317;47.254;11.314;2022-09-09T08:11:08;3.05;;;2.78;;
20318;SDS011;10317;47.254;11.314;2022-09-09T08:13:36;4.63;;;3.78;;
20318;SDS011;10317;47.254;11.314;2022-09-09T08:16:04;5.65;;;3.97;;
20318;SDS011;10317;47.254;11.314;2022-09-09T08:18:31;4.00;;;3.60;;
20318;SDS011;10317;47.254;11.314;2022-09-09T08:20:56;6.28;;;3.63;;
20318;SDS011;10317;47.254;11.314;2022-09-09T08:23:22;3.55;;;3.10;;
20318;SDS011;10317;47.254;11.314;2022-09-09T08:25:47;3.10;;;2.80;;
20318;SDS011;10317;47.254;11.314;2022-09-09T08:28:15;3.00;;;2.67;;
20318;SDS011;10317;47.254;11.314;2022-09-09T08:30:40;2.35;;;2.25;;
20318;SDS011;10317;47.254;11.314;2022-09-09T08:33:07;3.15;;;2.67;;
20318;SDS011;10317;47.254;11.314;2022-09-09T08:35:34;3.22;;;2.92;;
20318;SDS011;10317;47.254;11.314;2022-09-09T08:37:59;3.50;;;3.20;;
20318;SDS011;10317;47.254;11.314;2022-09-09T08:40:26;4.75;;;3.05;;
20318;SDS011;10317;47.254;11.314;2022-09-09T08:42:57;5.75;;;2.78;;
20318;SDS011;10317;47.254;11.314;2022-09-09T08:51:07;3.08;;;2.88;;
20318;SDS011;10317;47.254;11.314;2022-09-09T08:53:44;3.30;;;2.97;;
20318;SDS011;10317;47.254;11.314;2022-09-09T08:56:16;4.53;;;3.17;;
20318;SDS011;10317;47.254;11.314;2022-09-09T08:58:48;2.92;;;2.67;;
20318;SDS011;10317;47.254;11.314;2022-09-09T09:01:17;3.10;;;2.88;;
20318;SDS011;10317;47.254;11.314;2022-09-09T09:04:11;3.20;;;2.58;;
20318;SDS011;10317;47.254;11.314;2022-09-09T09:12:31;2.58;;;2.38;;
20318;SDS011;10317;47.254;11.314;2022-09-09T09:15:05;3.35;;;2.80;;
20318;SDS011;10317;47.254;11.314;2022-09-09T09:17:42;2.92;;;2.72;;
20318;SDS011;10317;47.254;11.314;2022-09-09T09:20:12;2.58;;;2.47;;
20318;SDS011;10317;47.254;11.314;2022-09-09T09:22:44;3.42;;;2.60;;
20318;SDS011;10317;47.254;11.314;2022-09-09T09:25:18;2.80;;;2.58;;
20318;SDS011;10317;47.254;11.314;2022-09-09T09:30:51;3.55;;;3.22;;
20318;SDS011;10317;47.254;11.314;2022-09-09T09:35:49;2.70;;;2.50;;
20318;SDS011;10317;47.254;11.314;2022-09-09T09:38:25;3.42;;;3.08;;
20318;SDS011;10317;47.254;11.314;2022-09-09T09:40:53;4.05;;;3.67;;
20318;SDS011;10317;47.254;11.314;2022-09-09T09:43:34;3.67;;;3.38;;
20318;SDS011;10317;47.254;11.314;2022-09-09T09:46:04;4.32;;;4.03;;
20318;SDS011;10317;47.254;11.314;2022-09-09T09:48:30;4.00;;;3.53;;
20318;SDS011;10317;47.254;11.314;2022-09-09T09:51:01;4.95;;;3.70;;
20318;SDS011;10317;47.254;11.314;2022-09-09T09:53:33;3.53;;;3.28;;
20318;SDS011;10317;47.254;11.314;2022-09-09T09:56:02;3.15;;;2.75;;
20318;SDS011;10317;47.254;11.314;2022-09-09T09:58:32;3.33;;;2.90;;
20318;SDS011;10317;47.254;11.314;2022-09-09T10:01:24;2.30;;;2.20;;
20318;SDS011;10317;47.254;11.314;2022-09-09T10:04:00;3.05;;;2.85;;
20318;SDS011;10317;47.254;11.314;2022-09-09T10:06:32;3.17;;;2.40;;
20318;SDS011;10317;47.254;11.314;2022-09-09T10:08:59;4.18;;;2.47;;
20318;SDS011;10317;47.254;11.314;2022-09-09T10:11:35;3.08;;;2.78;;
20318;SDS011;10317;47.254;11.314;2022-09-09T10:14:20;5.95;;;3.30;;
20318;SDS011;10317;47.254;11.314;2022-09-09T10:19:35;4.57;;;4.20;;
20318;SDS011;10317;47.254;11.314;2022-09-09T10:24:52;5.07;;;4.15;;
20318;SDS011;10317;47.254;11.314;2022-09-09T10:27:33;8.38;;;4.43;;
20318;SDS011;10317;47.254;11.314;2022-09-09T10:30:21;5.70;;;4.90;;
20318;SDS011;10317;47.254;11.314;2022-09-09T10:32:59;5.07;;;4.28;;
20318;SDS011;10317;47.254;11.314;2022-09-09T10:40:42;3.17;;;2.97;;
20318;SDS011;10317;47.254;11.314;2022-09-09T10:51:12;3.60;;;3.30;;
20318;SDS011;10317;47.254;11.314;2022-09-09T10:53:52;3.22;;;3.00;;
20318;SDS011;10317;47.254;11.314;2022-09-09T10:56:30;3.30;;;3.00;;
20318;SDS011;10317;47.254;11.314;2022-09-09T10:58:59;4.35;;;2.83;;
20318;SDS011;10317;47.254;11.314;2022-09-09T11:04:22;3.97;;;2.72;;
20318;SDS011;10317;47.254;11.314;2022-09-09T11:06:57;3.22;;;2.90;;
20318;SDS011;10317;47.254;11.314;2022-09-09T11:09:31;2.75;;;2.55;;
20318;SDS011;10317;47.254;11.314;2022-09-09T11:12:02;4.10;;;2.53;;
20318;SDS011;10317;47.254;11.314;2022-09-09T11:14:29;2.97;;;2.47;;
20318;SDS011;10317;47.254;11.314;2022-09-09T11:17:05;3.85;;;3.55;;
20318;SDS011;10317;47.254;11.314;2022-09-09T11:19:41;2.70;;;2.42;;
20318;SDS011;10317;47.254;11.314;2022-09-09T11:30:03;2.00;;;1.90;;
20318;SDS011;10317;47.254;11.314;2022-09-09T11:32:58;2.15;;;2.05;;
20318;SDS011;10317;47.254;11.314;2022-09-09T11:40:44;3.38;;;2.25;;
20318;SDS011;10317;47.254;11.314;2022-09-09T11:43:12;2.47;;;2.38;;
20318;SDS011;10317;47.254;11.314;2022-09-09T11:45:42;1.90;;;1.80;;
20318;SDS011;10317;47.254;11.314;2022-09-09T11:48:22;1.85;;;1.73;;
20318;SDS011;10317;47.254;11.314;2022-09-09T11:51:04;2.35;;;1.90;;
20318;SDS011;10317;47.254;11.314;2022-09-09T11:53:33;1.35;;;1.30;;
20318;SDS011;10317;47.254;11.314;2022-09-09T11:59:04;2.75;;;1.70;;
20318;SDS011;10317;47.254;11.314;2022-09-09T12:01:38;1.83;;;1.30;;
20318;SDS011;10317;47.254;11.314;2022-09-09T12:04:20;3.97;;;1.63;;
20318;SDS011;10317;47.254;11.314;2022-09-09T12:07:31;1.63;;;1.20;;
20318;SDS011;10317;47.254;11.314;2022-09-09T12:10:02;3.15;;;1.30;;
20318;SDS011;10317;47.254;11.314;2022-09-09T12:12:35;3.40;;;1.35;;
20318;SDS011;10317;47.254;11.314;2022-09-09T12:17:41;1.33;;;1.20;;
20318;SDS011;10317;47.254;11.314;2022-09-09T12:20:17;1.95;;;1.42;;
20318;SDS011;10317;47.254;11.314;2022-09-09T12:28:22;1.38;;;1.23;;
20318;SDS011;10317;47.254;11.314;2022-09-09T12:31:05;3.85;;;1.90;;
20318;SDS011;10317;47.254;11.314;2022-09-09T12:33:35;1.88;;;1.25;;
20318;SDS011;10317;47.254;11.314;2022-09-09T12:36:03;2.15;;;0.93;;
20318;SDS011;10317;47.254;11.314;2022-09-09T12:38:35;1.08;;;1.05;;
20318;SDS011;10317;47.254;11.314;2022-09-09T12:41:03;3.47;;;1.20;;
20318;SDS011;10317;47.254;11.314;2022-09-09T12:43:29;1.27;;;1.20;;
20318;SDS011;10317;47.254;11.314;2022-09-09T12:45:57;1.10;;;1.10;;
20318;SDS011;10317;47.254;11.314;2022-09-09T12:48:38;1.55;;;1.30;;
20318;SDS011;10317;47.254;11.314;2022-09-09T12:51:19;1.05;;;1.05;;
20318;SDS011;10317;47.254;11.314;2022-09-09T12:53:50;1.10;;;1.10;;
20318;SDS011;10317;47.254;11.314;2022-09-09T12:56:35;1.00;;;1.00;;
20318;SDS011;10317;47.254;11.314;2022-09-09T12:59:01;1.15;;;1.15;;
20318;SDS011;10317;47.254;11.314;2022-09-09T13:01:27;1.10;;;1.10;;
20318;SDS011;10317;47.254;11.314;2022-09-09T13:03:55;4.00;;;1.05;;
20318;SDS011;10317;47.254;11.314;2022-09-09T13:06:25;1.08;;;1.08;;
20318;SDS011;10317;47.254;11.314;2022-09-09T13:08:53;1.35;;;1.20;;
20318;SDS011;10317;47.254;11.314;2022-09-09T13:14:04;1.00;;;1.00;;
20318;SDS011;10317;47.254;11.314;2022-09-09T13:16:32;1.33;;;1.23;;
20318;SDS011;10317;47.254;11.314;2022-09-09T13:19:09;1.75;;;1.30;;
20318;SDS011;10317;47.254;11.314;2022-09-09T13:21:40;0.90;;;0.90;;
20318;SDS011;10317;47.254;11.314;2022-09-09T13:26:57;1.30;;;1.20;;
20318;SDS011;10317;47.254;11.314;2022-09-09T13:29:28;1.20;;;1.20;;
20318;SDS011;10317;47.254;11.314;2022-09-09T13:32:03;2.28;;;1.20;;
20318;SDS011;10317;47.254;11.314;2022-09-09T13:34:50;1.90;;;1.00;;
20318;SDS011;10317;47.254;11.314;2022-09-09T13:37:32;0.93;;;0.90;;
20318;SDS011;10317;47.254;11.314;2022-09-09T13:40:04;1.80;;;1.00;;
20318;SDS011;10317;47.254;11.314;2022-09-09T13:42:41;1.00;;;1.00;;
20318;SDS011;10317;47.254;11.314;2022-09-09T13:45:28;0.98;;;0.98;;
20318;SDS011;10317;47.254;11.314;2022-09-09T13:47:54;1.17;;;0.95;;
20318;SDS011;10317;47.254;11.314;2022-09-09T13:52:46;1.33;;;1.33;;
20318;SDS011;10317;47.254;11.314;2022-09-09T13:55:14;3.95;;;1.23;;
20318;SDS011;10317;47.254;11.314;2022-09-09T13:57:49;1.58;;;1.48;;
20318;SDS011;10317;47.254;11.314;2022-09-09T14:00:19;1.20;;;1.20;;
20318;SDS011;10317;47.254;11.314;2022-09-09T14:02:45;1.20;;;1.20;;
20318;SDS011;10317;47.254;11.314;2022-09-09T14:05:12;1.85;;;1.33;;
20318;SDS011;10317;47.254;11.314;2022-09-09T14:07:38;1.58;;;1.48;;
20318;SDS011;10317;47.254;11.314;2022-09-09T14:10:05;2.00;;;1.52;;
20318;SDS011;10317;47.254;11.314;2022-09-09T14:12:32;1.75;;;1.00;;
20318;SDS011;10317;47.254;11.314;2022-09-09T14:14:57;1.42;;;1.40;;
20318;SDS011;10317;47.254;11.314;2022-09-09T14:17:25;1.42;;;1.35;;
20318;SDS011;10317;47.254;11.314;2022-09-09T14:19:54;2.28;;;1.38;;
20318;SDS011;10317;47.254;11.314;2022-09-09T14:22:21;1.40;;;1.30;;
20318;SDS011;10317;47.254;11.314;2022-09-09T14:24:47;2.00;;;1.30;;
20318;SDS011;10317;47.254;11.314;2022-09-09T14:27:13;1.13;;;1.13;;
20318;SDS011;10317;47.254;11.314;2022-09-09T14:29:38;1.95;;;1.33;;
20318;SDS011;10317;47.254;11.314;2022-09-09T14:32:04;1.20;;;1.20;;
20318;SDS011;10317;47.254;11.314;2022-09-09T14:34:30;0.98;;;0.98;;
20318;SDS011;10317;47.254;11.314;2022-09-09T14:36:57;1.13;;;1.00;;
20318;SDS011;10317;47.254;11.314;2022-09-09T14:39:23;0.98;;;0.98;;
20318;SDS011;10317;47.254;11.314;2022-09-09T14:41:49;0.90;;;0.90;;
20318;SDS011;10317;47.254;11.314;2022-09-09T14:44:14;1.30;;;0.90;;
20318;SDS011;10317;47.254;11.314;2022-09-09T14:46:41;0.60;;;0.60;;
20318;SDS011;10317;47.254;11.314;2022-09-09T14:49:07;0.90;;;0.90;;
20318;SDS011;10317;47.254;11.314;2022-09-09T14:51:33;1.20;;;1.20;;
20318;SDS011;10317;47.254;11.314;2022-09-09T14:53:59;0.90;;;0.90;;
20318;SDS011;10317;47.254;11.314;2022-09-09T14:56:26;1.10;;;1.10;;
20318;SDS011;10317;47.254;11.314;2022-09-09T14:58:54;0.75;;;0.70;;
20318;SDS011;10317;47.254;11.314;2022-09-09T15:01:21;1.40;;;0.88;;
20318;SDS011;10317;47.254;11.314;2022-09-09T15:03:51;1.05;;;0.98;;
20318;SDS011;10317;47.254;11.314;2022-09-09T15:06:19;1.55;;;0.90;;
20318;SDS011;10317;47.254;11.314;2022-09-09T15:08:46;1.00;;;1.00;;
20318;SDS011;10317;47.254;11.314;2022-09-09T15:11:13;1.17;;;1.17;;
20318;SDS011;10317;47.254;11.314;2022-09-09T15:13:40;1.25;;;1.17;;
20318;SDS011;10317;47.254;11.314;2022-09-09T15:16:08;2.92;;;1.30;;
20318;SDS011;10317;47.254;11.314;2022-09-09T15:18:41;1.40;;;1.30;;
20318;SDS011;10317;47.254;11.314;2022-09-09T15:21:10;1.90;;;1.23;;
20318;SDS011;10317;47.254;11.314;2022-09-09T15:23:40;1.23;;;1.23;;
20318;SDS011;10317;47.254;11.314;2022-09-09T15:26:07;0.90;;;0.90;;
20318;SDS011;10317;47.254;11.314;2022-09-09T15:28:33;1.23;;;1.13;;
20318;SDS011;10317;47.254;11.314;2022-09-09T15:31:04;2.63;;;1.70;;
20318;SDS011;10317;47.254;11.314;2022-09-09T15:33:32;1.65;;;1.40;;
20318;SDS011;10317;47.254;11.314;2022-09-09T15:35:58;1.05;;;1.05;;
20318;SDS011;10317;47.254;11.314;2022-09-09T15:38:24;1.50;;;1.15;;
20318;SDS011;10317;47.254;11.314;2022-09-09T15:40:53;1.13;;;1.13;;
20318;SDS011;10317;47.254;11.314;2022-09-09T15:43:20;1.33;;;1.23;;
20318;SDS011;10317;47.254;11.314;2022-09-09T15:45:49;0.90;;;0.90;;
20318;SDS011;10317;47.254;11.314;2022-09-09T15:48:19;1.25;;;1.10;;
20318;SDS011;10317;47.254;11.314;2022-09-09T15:51:00;2.92;;;2.25;;
20318;SDS011;10317;47.254;11.314;2022-09-09T15:53:28;2.28;;;0.82;;
20318;SDS011;10317;47.254;11.314;2022-09-09T15:55:55;0.77;;;0.77;;
20318;SDS011;10317;47.254;11.314;2022-09-09T15:58:20;1.05;;;0.75;;
20318;SDS011;10317;47.254;11.314;2022-09-09T16:00:46;1.02;;;1.00;;
20318;SDS011;10317;47.254;11.314;2022-09-09T16:03:12;0.82;;;0.82;;
20318;SDS011;10317;47.254;11.314;2022-09-09T16:05:38;0.77;;;0.77;;
20318;SDS011;10317;47.254;11.314;2022-09-09T16:08:03;0.98;;;0.90;;
20318;SDS011;10317;47.254;11.314;2022-09-09T16:10:29;0.80;;;0.80;;
20318;SDS011;10317;47.254;11.314;2022-09-09T16:12:56;1.15;;;0.80;;
20318;SDS011;10317;47.254;11.314;2022-09-09T16:15:21;1.33;;;0.70;;
20318;SDS011;10317;47.254;11.314;2022-09-09T16:17:48;0.80;;;0.80;;
20318;SDS011;10317;47.254;11.314;2022-09-09T16:20:14;1.10;;;1.10;;
20318;SDS011;10317;47.254;11.314;2022-09-09T16:22:40;0.93;;;0.93;;
20318;SDS011;10317;47.254;11.314;2022-09-09T16:25:07;1.40;;;1.05;;
20318;SDS011;10317;47.254;11.314;2022-09-09T16:27:33;1.42;;;1.40;;
20318;SDS011;10317;47.254;11.314;2022-09-09T16:29:59;2.38;;;1.20;;
20318;SDS011;10317;47.254;11.314;2022-09-09T16:32:24;1.95;;;1.10;;
20318;SDS011;10317;47.254;11.314;2022-09-09T16:34:50;1.83;;;1.10;;
20318;SDS011;10317;47.254;11.314;2022-09-09T16:37:16;2.05;;;1.83;;
20318;SDS011;10317;47.254;11.314;2022-09-09T16:39:42;1.38;;;1.23;;
20318;SDS011;10317;47.254;11.314;2022-09-09T16:42:08;2.45;;;1.42;;
20318;SDS011;10317;47.254;11.314;2022-09-09T16:44:34;1.45;;;1.30;;
20318;SDS011;10317;47.254;11.314;2022-09-09T16:47:00;1.00;;;1.00;;